createdAt,value
2017-11-26T00:00:53.630Z,2.20
2017-11-26T00:01:56.088Z,2.20
2017-11-26T00:02:58.703Z,2.20
2017-11-26T00:04:01.172Z,2.20
2017-11-26T00:05:03.660Z,2.20
2017-11-26T00:06:06.942Z,2.20
2017-11-26T00:07:10.238Z,2.20
2017-11-26T00:08:12.835Z,2.20
2017-11-26T00:09:15.651Z,2.20
2017-11-26T00:10:18.164Z,2.10
2017-11-26T00:11:20.631Z,2.10
2017-11-26T00:12:23.091Z,2.10
2017-11-26T00:13:25.554Z,2.10
2017-11-26T00:14:28.013Z,2.10
2017-11-26T00:15:30.513Z,2.10
2017-11-26T00:16:33.834Z,2.20
2017-11-26T00:17:36.318Z,2.10
2017-11-26T00:18:38.776Z,2.10
2017-11-26T00:19:41.240Z,2.20
2017-11-26T00:20:44.480Z,2.10
2017-11-26T00:21:47.736Z,2.10
2017-11-26T00:22:50.228Z,2.10
2017-11-26T00:23:52.742Z,2.10
2017-11-26T00:24:55.232Z,2.10
2017-11-26T00:25:57.787Z,2.10
2017-11-26T00:27:00.308Z,2.10
2017-11-26T00:28:02.778Z,2.10
2017-11-26T00:29:06.332Z,2.00
2017-11-26T00:30:09.553Z,2.10
2017-11-26T00:31:12.786Z,2.10
2017-11-26T00:32:15.343Z,2.10
2017-11-26T00:33:17.872Z,2.10
2017-11-26T00:34:21.192Z,2.00
2017-11-26T00:35:23.650Z,2.10
2017-11-26T00:36:26.174Z,2.10
2017-11-26T00:37:28.795Z,2.10
2017-11-26T00:38:31.317Z,2.10
2017-11-26T00:39:33.869Z,2.00
2017-11-26T00:40:36.370Z,2.00
2017-11-26T00:41:38.894Z,2.00
2017-11-26T00:42:41.424Z,2.00
2017-11-26T00:43:43.911Z,2.00
2017-11-26T00:44:46.393Z,2.00
2017-11-26T00:45:48.896Z,2.00
2017-11-26T00:46:51.364Z,2.00
2017-11-26T00:47:54.179Z,2.00
2017-11-26T00:48:56.648Z,2.00
2017-11-26T00:49:59.204Z,1.90
2017-11-26T00:51:02.433Z,1.90
2017-11-26T00:52:05.646Z,1.90
2017-11-26T00:53:08.193Z,1.90
2017-11-26T00:54:11.424Z,1.90
2017-11-26T00:55:14.652Z,1.90
2017-11-26T00:56:17.124Z,1.90
2017-11-26T00:57:19.761Z,1.90
2017-11-26T00:58:22.269Z,1.80
2017-11-26T00:59:25.516Z,1.80
2017-11-26T01:00:28.735Z,1.80
2017-11-26T01:01:31.967Z,1.80
2017-11-26T01:02:34.437Z,1.80
2017-11-26T01:03:36.956Z,1.80
2017-11-26T01:04:39.418Z,1.80
2017-11-26T01:05:41.879Z,1.80
2017-11-26T01:06:45.144Z,1.90
2017-11-26T01:07:47.607Z,1.80
2017-11-26T01:08:50.095Z,1.80
2017-11-26T01:09:53.432Z,1.80
2017-11-26T01:10:56.659Z,1.80
2017-11-26T01:11:59.131Z,1.80
2017-11-26T01:13:01.623Z,1.80
2017-11-26T01:14:04.883Z,1.80
2017-11-26T01:15:07.344Z,1.80
2017-11-26T01:16:09.807Z,1.80
2017-11-26T01:17:13.049Z,1.80
2017-11-26T01:18:16.264Z,1.70
2017-11-26T01:19:18.772Z,1.70
2017-11-26T01:20:21.271Z,1.70
2017-11-26T01:21:23.743Z,1.70
2017-11-26T01:22:45.986Z,1.70
2017-11-26T01:23:48.484Z,1.70
2017-11-26T01:24:51.060Z,1.70
2017-11-26T01:25:53.541Z,1.70
2017-11-26T01:26:56.016Z,1.70
2017-11-26T01:27:58.496Z,1.70
2017-11-26T01:29:00.995Z,1.70
2017-11-26T01:30:04.292Z,1.70
2017-11-26T01:31:06.760Z,1.60
2017-11-26T01:32:10.017Z,1.70
2017-11-26T01:33:13.275Z,1.60
2017-11-26T01:34:15.788Z,1.60
2017-11-26T01:35:18.273Z,1.70
2017-11-26T01:36:20.782Z,1.70
2017-11-26T01:37:23.304Z,1.70
2017-11-26T01:38:25.772Z,1.70
2017-11-26T01:39:29.496Z,1.70
2017-11-26T01:40:31.967Z,1.60
2017-11-26T01:41:34.498Z,1.60
2017-11-26T01:42:36.987Z,1.70
2017-11-26T01:43:40.263Z,1.70
2017-11-26T01:44:42.748Z,1.70
2017-11-26T01:45:45.238Z,1.70
2017-11-26T01:46:47.688Z,1.70
2017-11-26T01:47:50.211Z,1.60
2017-11-26T01:48:52.691Z,1.60
2017-11-26T01:49:55.289Z,1.60
2017-11-26T01:50:58.459Z,1.60
2017-11-26T01:52:00.938Z,1.60
2017-11-26T01:53:03.409Z,1.60
2017-11-26T01:54:05.874Z,1.60
2017-11-26T01:55:08.359Z,1.60
2017-11-26T01:56:10.832Z,1.50
2017-11-26T01:57:13.304Z,1.50
2017-11-26T01:58:15.787Z,1.50
2017-11-26T01:59:19.775Z,1.50
2017-11-26T02:00:23.039Z,1.50
2017-11-26T02:01:25.518Z,1.50
2017-11-26T02:02:28.615Z,1.50
2017-11-26T02:03:31.092Z,1.50
2017-11-26T02:04:33.560Z,1.50
2017-11-26T02:05:37.438Z,1.50
2017-11-26T02:06:40.743Z,1.40
2017-11-26T02:07:43.236Z,1.40
2017-11-26T02:08:45.712Z,1.40
2017-11-26T02:09:48.198Z,1.40
2017-11-26T02:10:51.470Z,1.40
2017-11-26T02:11:53.934Z,1.40
2017-11-26T02:12:56.529Z,1.40
2017-11-26T02:13:59.009Z,1.40
2017-11-26T02:15:01.475Z,1.40
2017-11-26T02:16:03.943Z,1.50
2017-11-26T02:17:06.427Z,1.40
2017-11-26T02:18:08.904Z,1.40
2017-11-26T02:19:11.362Z,1.40
2017-11-26T02:20:13.865Z,1.40
2017-11-26T02:21:16.470Z,1.40
2017-11-26T02:22:18.950Z,1.40
2017-11-26T02:23:21.440Z,1.40
2017-11-26T02:24:24.068Z,1.40
2017-11-26T02:25:26.578Z,1.40
2017-11-26T02:26:29.164Z,1.40
2017-11-26T02:27:31.631Z,1.40
2017-11-26T02:28:34.186Z,1.40
2017-11-26T02:29:36.763Z,1.40
2017-11-26T02:30:39.280Z,1.40
2017-11-26T02:31:53.720Z,1.40
2017-11-26T02:33:07.960Z,1.40
2017-11-26T02:34:22.476Z,1.40
2017-11-26T02:35:48.816Z,1.40
2017-11-26T02:36:51.300Z,1.40
2017-11-26T02:37:53.866Z,1.40
2017-11-26T02:38:56.326Z,1.30
2017-11-26T02:39:58.812Z,1.40
2017-11-26T02:41:01.274Z,1.30
2017-11-26T02:42:03.769Z,1.30
2017-11-26T02:43:06.236Z,1.30
2017-11-26T02:44:08.709Z,1.40
2017-11-26T02:45:11.198Z,1.40
2017-11-26T02:46:13.683Z,1.40
2017-11-26T02:47:16.153Z,1.40
2017-11-26T02:48:18.614Z,1.40
2017-11-26T02:49:21.071Z,1.40
2017-11-26T02:50:23.557Z,1.40
2017-11-26T02:51:26.809Z,1.40
2017-11-26T02:52:29.276Z,1.40
2017-11-26T02:53:31.760Z,1.40
2017-11-26T02:54:34.237Z,1.40
2017-11-26T02:55:36.747Z,1.40
2017-11-26T02:56:39.207Z,1.40
2017-11-26T02:57:42.450Z,1.40
2017-11-26T02:58:45.678Z,1.40
2017-11-26T02:59:48.148Z,1.40
2017-11-26T03:00:50.630Z,1.40
2017-11-26T03:01:53.118Z,1.40
2017-11-26T03:02:55.601Z,1.30
2017-11-26T03:03:58.856Z,1.30
2017-11-26T03:05:01.327Z,1.30
2017-11-26T03:06:03.895Z,1.30
2017-11-26T03:07:06.381Z,1.30
2017-11-26T03:08:08.845Z,1.30
2017-11-26T03:09:12.369Z,1.30
2017-11-26T03:10:15.621Z,1.30
2017-11-26T03:11:18.079Z,1.30
2017-11-26T03:12:20.581Z,1.20
2017-11-26T03:13:24.192Z,1.30
2017-11-26T03:14:26.663Z,1.20
2017-11-26T03:15:29.898Z,1.20
2017-11-26T03:16:33.123Z,1.20
2017-11-26T03:17:35.611Z,1.20
2017-11-26T03:18:38.097Z,1.20
2017-11-26T03:19:40.585Z,1.20
2017-11-26T03:20:43.048Z,1.20
2017-11-26T03:21:46.296Z,1.20
2017-11-26T03:22:48.751Z,1.20
2017-11-26T03:23:51.237Z,1.20
2017-11-26T03:24:54.498Z,1.10
2017-11-26T03:25:56.967Z,1.10
2017-11-26T03:26:59.448Z,1.20
2017-11-26T03:28:01.929Z,1.10
2017-11-26T03:29:04.395Z,1.10
2017-11-26T03:30:06.890Z,1.20
2017-11-26T03:31:10.153Z,1.10
2017-11-26T03:32:12.687Z,1.10
2017-11-26T03:33:15.144Z,1.10
2017-11-26T03:34:17.611Z,1.10
2017-11-26T03:35:20.845Z,1.10
2017-11-26T03:36:24.931Z,1.10
2017-11-26T03:37:27.471Z,1.10
2017-11-26T03:38:29.935Z,1.10
2017-11-26T03:39:32.391Z,1.10
2017-11-26T03:40:35.643Z,1.10
2017-11-26T03:41:38.922Z,1.10
2017-11-26T03:42:41.414Z,1.10
2017-11-26T03:43:44.649Z,1.10
2017-11-26T03:44:47.932Z,1.10
2017-11-26T03:45:50.444Z,1.10
2017-11-26T03:46:52.920Z,1.10
2017-11-26T03:47:55.399Z,1.10
2017-11-26T03:48:57.889Z,1.10
2017-11-26T03:50:01.107Z,1.10
2017-11-26T03:51:03.571Z,1.10
2017-11-26T03:52:06.079Z,1.10
2017-11-26T03:53:09.343Z,1.10
2017-11-26T03:54:11.805Z,1.10
2017-11-26T03:55:14.297Z,1.10
2017-11-26T03:56:16.761Z,1.00
2017-11-26T03:57:19.267Z,1.10
2017-11-26T03:58:22.093Z,1.10
2017-11-26T03:59:24.563Z,1.10
2017-11-26T04:00:27.035Z,1.10
2017-11-26T04:01:29.539Z,1.10
2017-11-26T04:02:32.004Z,1.10
2017-11-26T04:03:34.499Z,1.10
2017-11-26T04:04:36.977Z,1.10
2017-11-26T04:05:39.450Z,1.10
2017-11-26T04:06:41.923Z,1.10
2017-11-26T04:07:44.547Z,1.10
2017-11-26T04:08:47.026Z,1.10
2017-11-26T04:09:49.504Z,1.10
2017-11-26T04:10:51.988Z,1.10
2017-11-26T04:11:54.452Z,1.10
2017-11-26T04:12:58.074Z,1.10
2017-11-26T04:14:00.553Z,1.10
2017-11-26T04:15:03.017Z,1.10
2017-11-26T04:16:05.483Z,1.10
2017-11-26T04:17:08.096Z,1.10
2017-11-26T04:18:10.612Z,1.10
2017-11-26T04:19:13.099Z,1.20
2017-11-26T04:20:15.550Z,1.20
2017-11-26T04:21:18.049Z,1.10
2017-11-26T04:22:20.567Z,1.20
2017-11-26T04:23:23.836Z,1.20
2017-11-26T04:24:27.173Z,1.20
2017-11-26T04:25:29.653Z,1.20
2017-11-26T04:26:32.134Z,1.20
2017-11-26T04:27:34.594Z,1.20
2017-11-26T04:28:37.888Z,1.20
2017-11-26T04:29:40.356Z,1.10
2017-11-26T04:30:42.866Z,1.10
2017-11-26T04:31:45.374Z,1.10
2017-11-26T04:32:47.867Z,1.20
2017-11-26T04:33:51.130Z,1.10
2017-11-26T04:34:53.604Z,1.10
2017-11-26T04:35:56.127Z,1.10
2017-11-26T04:36:58.628Z,1.20
2017-11-26T04:38:01.097Z,1.20
2017-11-26T04:39:03.568Z,1.10
2017-11-26T04:40:06.147Z,1.10
2017-11-26T04:41:08.639Z,1.10
2017-11-26T04:42:11.084Z,1.10
2017-11-26T04:43:13.664Z,1.10
2017-11-26T04:44:16.135Z,1.10
2017-11-26T04:45:18.602Z,1.10
2017-11-26T04:46:21.144Z,1.10
2017-11-26T04:47:23.672Z,1.10
2017-11-26T04:48:26.178Z,1.10
2017-11-26T04:49:28.634Z,1.10
2017-11-26T04:50:31.110Z,1.10
2017-11-26T04:51:34.357Z,1.20
2017-11-26T04:52:37.585Z,1.20
2017-11-26T04:53:40.062Z,1.10
2017-11-26T04:54:42.564Z,1.10
2017-11-26T04:55:45.034Z,1.20
2017-11-26T04:56:47.524Z,1.10
2017-11-26T04:57:50.006Z,1.20
2017-11-26T04:58:53.241Z,1.10
2017-11-26T04:59:57.227Z,1.10
2017-11-26T05:01:00.456Z,1.10
2017-11-26T05:02:03.723Z,1.20
2017-11-26T05:03:06.968Z,1.10
2017-11-26T05:04:09.450Z,1.20
2017-11-26T05:05:11.924Z,1.20
2017-11-26T05:06:14.415Z,1.20
2017-11-26T05:07:17.653Z,1.20
2017-11-26T05:08:20.112Z,1.20
2017-11-26T05:09:22.681Z,1.20
2017-11-26T05:10:25.160Z,1.20
2017-11-26T05:11:27.658Z,1.20
2017-11-26T05:12:30.916Z,1.10
2017-11-26T05:13:34.147Z,1.10
2017-11-26T05:14:36.649Z,1.10
2017-11-26T05:15:39.128Z,1.10
2017-11-26T05:16:41.616Z,1.10
2017-11-26T05:17:44.459Z,1.10
2017-11-26T05:18:47.735Z,1.10
2017-11-26T05:19:50.208Z,1.10
2017-11-26T05:20:53.489Z,1.20
2017-11-26T05:21:55.948Z,1.10
2017-11-26T05:22:58.455Z,1.20
2017-11-26T05:24:00.924Z,1.10
2017-11-26T05:25:03.439Z,1.20
2017-11-26T05:26:05.918Z,1.10
2017-11-26T05:27:08.415Z,1.10
2017-11-26T05:28:10.876Z,1.10
2017-11-26T05:29:13.356Z,1.10
2017-11-26T05:30:15.869Z,1.10
2017-11-26T05:31:18.374Z,1.10
2017-11-26T05:32:20.851Z,1.10
2017-11-26T05:33:24.089Z,1.10
2017-11-26T05:34:27.356Z,1.10
2017-11-26T05:35:29.918Z,1.10
2017-11-26T05:36:32.507Z,1.10
2017-11-26T05:37:34.976Z,1.10
2017-11-26T05:38:37.470Z,1.10
2017-11-26T05:39:40.002Z,1.10
2017-11-26T05:40:42.496Z,1.10
2017-11-26T05:41:45.762Z,1.10
2017-11-26T05:42:48.256Z,1.10
2017-11-26T05:43:51.488Z,1.10
2017-11-26T05:44:53.942Z,1.10
2017-11-26T05:45:56.427Z,1.10
2017-11-26T05:46:58.910Z,1.10
2017-11-26T05:48:01.466Z,1.10
2017-11-26T05:49:03.950Z,1.10
2017-11-26T05:50:06.433Z,1.10
2017-11-26T05:51:08.929Z,1.00
2017-11-26T05:52:11.416Z,1.10
2017-11-26T05:53:13.891Z,1.00
2017-11-26T05:54:16.366Z,1.00
2017-11-26T05:55:18.896Z,1.00
2017-11-26T05:56:21.395Z,1.00
2017-11-26T05:57:24.644Z,1.00
2017-11-26T05:58:27.883Z,1.00
2017-11-26T05:59:31.132Z,1.00
2017-11-26T06:00:34.367Z,1.10
2017-11-26T06:01:36.864Z,1.10
2017-11-26T06:02:39.327Z,1.10
2017-11-26T06:03:42.626Z,1.10
2017-11-26T06:04:45.138Z,1.10
2017-11-26T06:05:47.649Z,1.20
2017-11-26T06:06:50.109Z,1.20
2017-11-26T06:07:53.394Z,1.20
2017-11-26T06:08:56.658Z,1.20
2017-11-26T06:09:59.124Z,1.20
2017-11-26T06:11:01.585Z,1.30
2017-11-26T06:12:04.933Z,1.30
2017-11-26T06:13:07.444Z,1.30
2017-11-26T06:14:10.693Z,1.30
2017-11-26T06:15:13.961Z,1.30
2017-11-26T06:16:16.429Z,1.30
2017-11-26T06:17:19.009Z,1.40
2017-11-26T06:18:21.499Z,1.30
2017-11-26T06:19:23.960Z,1.30
2017-11-26T06:20:26.442Z,1.30
2017-11-26T06:21:28.953Z,1.30
2017-11-26T06:22:31.436Z,1.30
2017-11-26T06:23:34.388Z,1.30
2017-11-26T06:24:36.907Z,1.30
2017-11-26T06:25:39.378Z,1.30
2017-11-26T06:26:41.844Z,1.30
2017-11-26T06:27:44.359Z,1.30
2017-11-26T06:28:46.831Z,1.30
2017-11-26T06:29:49.324Z,1.30
2017-11-26T06:30:52.539Z,1.30
2017-11-26T06:31:55.796Z,1.30
2017-11-26T06:32:58.277Z,1.30
2017-11-26T06:34:01.546Z,1.30
2017-11-26T06:35:04.804Z,1.20
2017-11-26T06:36:07.272Z,1.30
2017-11-26T06:37:09.735Z,1.30
2017-11-26T06:38:12.977Z,1.20
2017-11-26T06:39:16.239Z,1.20
2017-11-26T06:40:18.700Z,1.20
2017-11-26T06:41:21.184Z,1.20
2017-11-26T06:42:24.430Z,1.20
2017-11-26T06:43:26.901Z,1.20
2017-11-26T06:44:29.385Z,1.20
2017-11-26T06:45:31.853Z,1.20
2017-11-26T06:46:34.351Z,1.20
2017-11-26T06:47:36.840Z,1.20
2017-11-26T06:48:40.069Z,1.20
2017-11-26T06:49:43.301Z,1.20
2017-11-26T06:50:45.782Z,1.20
2017-11-26T06:51:48.317Z,1.30
2017-11-26T06:52:50.782Z,1.30
2017-11-26T06:53:53.334Z,1.30
2017-11-26T06:54:57.179Z,1.40
2017-11-26T06:56:00.412Z,1.40
2017-11-26T06:57:03.679Z,1.40
2017-11-26T06:58:06.140Z,1.40
2017-11-26T06:59:08.629Z,1.40
2017-11-26T07:00:11.105Z,1.50
2017-11-26T07:01:13.557Z,1.50
2017-11-26T07:02:16.832Z,1.50
2017-11-26T07:03:19.354Z,1.50
2017-11-26T07:04:21.826Z,1.50
2017-11-26T07:05:24.416Z,1.50
2017-11-26T07:06:26.949Z,1.50
2017-11-26T07:07:29.658Z,1.50
2017-11-26T07:08:32.189Z,1.50
2017-11-26T07:09:34.782Z,1.60
2017-11-26T07:10:37.272Z,1.60
2017-11-26T07:11:39.737Z,1.60
2017-11-26T07:12:42.968Z,1.60
2017-11-26T07:13:45.436Z,1.60
2017-11-26T07:14:47.925Z,1.70
2017-11-26T07:15:50.543Z,1.60
2017-11-26T07:16:53.019Z,1.60
2017-11-26T07:17:55.524Z,1.70
2017-11-26T07:18:58.178Z,1.70
2017-11-26T07:20:00.678Z,1.70
2017-11-26T07:21:03.140Z,1.70
2017-11-26T07:22:05.763Z,1.70
2017-11-26T07:23:08.291Z,1.70
2017-11-26T07:24:10.784Z,1.70
2017-11-26T07:25:13.408Z,1.80
2017-11-26T07:26:16.839Z,1.80
2017-11-26T07:27:19.592Z,1.80
2017-11-26T07:28:22.935Z,1.80
2017-11-26T07:29:25.418Z,1.80
2017-11-26T07:30:28.238Z,1.80
2017-11-26T07:31:30.745Z,1.80
2017-11-26T07:32:33.235Z,1.80
2017-11-26T07:33:36.570Z,1.90
2017-11-26T07:34:41.311Z,1.90
2017-11-26T07:35:43.788Z,1.80
2017-11-26T07:36:47.034Z,1.90
2017-11-26T07:37:49.848Z,1.90
2017-11-26T07:38:52.385Z,1.90
2017-11-26T07:39:59.273Z,1.90
2017-11-26T07:41:02.425Z,1.90
2017-11-26T07:42:04.925Z,1.90
2017-11-26T07:43:07.626Z,1.90
2017-11-26T07:44:10.148Z,1.80
2017-11-26T07:45:13.432Z,1.80
2017-11-26T07:46:15.922Z,1.80
2017-11-26T07:47:18.394Z,1.80
2017-11-26T07:48:20.959Z,1.80
2017-11-26T07:49:23.475Z,1.90
2017-11-26T07:50:26.897Z,1.90
2017-11-26T07:51:30.133Z,1.90
2017-11-26T07:52:33.401Z,1.90
2017-11-26T07:53:36.669Z,1.80
2017-11-26T07:54:39.155Z,1.80
2017-11-26T07:55:41.625Z,1.80
2017-11-26T07:56:44.099Z,1.80
2017-11-26T07:57:46.605Z,1.80
2017-11-26T07:58:49.131Z,1.80
2017-11-26T07:59:51.603Z,1.80
2017-11-26T08:00:54.074Z,1.80
2017-11-26T08:01:56.534Z,1.90
2017-11-26T08:02:59.792Z,1.90
2017-11-26T08:04:03.063Z,1.90
2017-11-26T08:05:05.540Z,1.90
2017-11-26T08:06:08.007Z,1.90
2017-11-26T08:07:10.484Z,2.00
2017-11-26T08:08:12.985Z,1.90
2017-11-26T08:09:15.729Z,2.00
2017-11-26T08:10:18.230Z,2.00
2017-11-26T08:11:21.431Z,2.00
2017-11-26T08:12:24.659Z,2.00
2017-11-26T08:13:27.894Z,2.00
2017-11-26T08:14:30.619Z,2.00
2017-11-26T08:15:33.109Z,2.00
2017-11-26T08:16:35.657Z,2.00
2017-11-26T08:17:38.948Z,2.00
2017-11-26T08:18:41.418Z,2.00
2017-11-26T08:19:43.886Z,2.00
2017-11-26T08:20:47.128Z,1.90
2017-11-26T08:21:50.387Z,1.90
2017-11-26T08:22:52.965Z,1.90
2017-11-26T08:23:55.507Z,1.90
2017-11-26T08:24:58.068Z,2.00
2017-11-26T08:26:00.558Z,2.10
2017-11-26T08:27:03.800Z,2.40
2017-11-26T08:28:06.605Z,2.40
2017-11-26T08:29:09.158Z,2.70
2017-11-26T08:30:12.472Z,2.90
2017-11-26T08:31:14.947Z,3.20
2017-11-26T08:32:18.183Z,3.60
2017-11-26T08:33:21.423Z,3.80
2017-11-26T08:34:24.686Z,4.10
2017-11-26T08:35:29.376Z,4.30
2017-11-26T08:36:31.881Z,4.20
2017-11-26T08:37:35.123Z,4.50
2017-11-26T08:38:38.370Z,4.60
2017-11-26T08:39:40.851Z,4.50
2017-11-26T08:40:43.355Z,4.60
2017-11-26T08:41:45.844Z,4.70
2017-11-26T08:42:48.357Z,4.60
2017-11-26T08:43:51.599Z,4.30
2017-11-26T08:44:54.833Z,4.10
2017-11-26T08:45:57.332Z,4.10
2017-11-26T08:47:00.259Z,3.90
2017-11-26T08:48:02.748Z,3.70
2017-11-26T08:49:05.244Z,3.60
2017-11-26T08:50:08.475Z,3.40
2017-11-26T08:51:10.971Z,3.40
2017-11-26T08:52:13.450Z,3.30
2017-11-26T08:53:16.683Z,3.10
2017-11-26T08:54:19.914Z,3.00
2017-11-26T08:55:23.208Z,3.00
2017-11-26T08:56:25.817Z,2.90
2017-11-26T08:57:29.590Z,2.80
2017-11-26T08:58:32.865Z,2.80
2017-11-26T08:59:35.354Z,2.80
2017-11-26T09:00:38.611Z,2.80
2017-11-26T09:01:41.100Z,2.80
2017-11-26T09:02:43.562Z,2.80
2017-11-26T09:03:46.029Z,2.90
2017-11-26T09:04:48.488Z,2.90
2017-11-26T09:05:50.960Z,2.90
2017-11-26T09:07:08.364Z,3.00
2017-11-26T09:08:12.107Z,3.00
2017-11-26T09:09:15.326Z,3.10
2017-11-26T09:10:17.815Z,3.00
2017-11-26T09:11:20.300Z,3.00
2017-11-26T09:12:22.763Z,3.00
2017-11-26T09:13:25.254Z,3.10
2017-11-26T09:14:27.705Z,3.10
2017-11-26T09:15:30.178Z,3.10
2017-11-26T09:16:33.153Z,3.10
2017-11-26T09:17:35.611Z,3.10
2017-11-26T09:18:38.083Z,3.10
2017-11-26T09:19:41.354Z,3.10
2017-11-26T09:20:44.592Z,3.10
2017-11-26T09:21:47.065Z,3.10
2017-11-26T09:22:49.534Z,3.10
2017-11-26T09:23:51.993Z,3.10
2017-11-26T09:24:54.504Z,3.00
2017-11-26T09:25:56.949Z,3.00
2017-11-26T09:26:59.400Z,3.00
2017-11-26T09:28:02.649Z,3.10
2017-11-26T09:29:05.894Z,3.10
2017-11-26T09:30:09.147Z,3.20
2017-11-26T09:31:12.389Z,3.20
2017-11-26T09:32:15.613Z,3.40
2017-11-26T09:33:18.085Z,3.30
2017-11-26T09:34:20.598Z,3.40
2017-11-26T09:35:23.113Z,3.50
2017-11-26T09:36:26.363Z,3.60
2017-11-26T09:37:28.876Z,3.60
2017-11-26T09:38:32.154Z,3.60
2017-11-26T09:39:35.862Z,3.60
2017-11-26T09:40:38.520Z,3.60
2017-11-26T09:41:41.307Z,3.60
2017-11-26T09:42:43.954Z,3.60
2017-11-26T09:43:46.481Z,3.50
2017-11-26T09:44:49.747Z,3.50
2017-11-26T09:45:52.290Z,3.50
2017-11-26T09:46:54.764Z,3.60
2017-11-26T09:47:57.227Z,3.60
2017-11-26T09:48:59.853Z,3.60
2017-11-26T09:50:03.168Z,3.50
2017-11-26T09:51:06.560Z,3.60
2017-11-26T09:52:09.040Z,3.60
2017-11-26T09:53:12.302Z,3.60
2017-11-26T09:54:14.813Z,3.50
2017-11-26T09:55:18.085Z,3.60
2017-11-26T09:56:20.594Z,3.60
2017-11-26T09:57:23.082Z,3.60
2017-11-26T09:58:25.738Z,3.60
2017-11-26T09:59:28.320Z,3.60
2017-11-26T10:00:30.904Z,3.60
2017-11-26T10:01:33.386Z,3.60
2017-11-26T10:02:35.860Z,3.60
2017-11-26T10:03:38.319Z,3.60
2017-11-26T10:04:40.807Z,3.60
2017-11-26T10:05:43.349Z,3.60
2017-11-26T10:06:45.808Z,3.70
2017-11-26T10:07:48.289Z,3.70
2017-11-26T10:08:50.772Z,3.70
2017-11-26T10:09:53.327Z,3.80
2017-11-26T10:10:56.585Z,3.80
2017-11-26T10:11:59.061Z,3.80
2017-11-26T10:13:01.629Z,3.80
2017-11-26T10:14:05.197Z,3.90
2017-11-26T10:15:07.786Z,3.90
2017-11-26T10:16:10.747Z,3.80
2017-11-26T10:17:14.233Z,3.80
2017-11-26T10:18:17.306Z,3.80
2017-11-26T10:19:19.828Z,3.90
2017-11-26T10:20:23.617Z,4.00
2017-11-26T10:21:27.348Z,4.00
2017-11-26T10:22:30.142Z,4.00
2017-11-26T10:23:32.768Z,4.00
2017-11-26T10:24:37.872Z,4.00
2017-11-26T10:25:40.537Z,4.10
2017-11-26T10:26:43.009Z,4.10
2017-11-26T10:27:45.493Z,4.10
2017-11-26T10:28:48.040Z,4.10
2017-11-26T10:29:50.540Z,4.20
2017-11-26T10:30:53.071Z,4.30
2017-11-26T10:31:55.595Z,4.30
2017-11-26T10:32:58.169Z,4.30
2017-11-26T10:34:00.624Z,4.30
2017-11-26T10:35:03.994Z,4.30
2017-11-26T10:36:06.633Z,4.30
2017-11-26T10:37:09.093Z,4.30
2017-11-26T10:38:11.565Z,4.30
2017-11-26T10:39:14.032Z,4.30
2017-11-26T10:40:16.540Z,4.30
2017-11-26T10:41:19.053Z,4.30
2017-11-26T10:42:22.027Z,4.30
2017-11-26T10:43:24.603Z,4.40
2017-11-26T10:44:27.401Z,4.40
2017-11-26T10:45:29.877Z,4.40
2017-11-26T10:46:32.422Z,4.40
2017-11-26T10:47:34.998Z,4.50
2017-11-26T10:48:38.248Z,4.60
2017-11-26T10:49:40.759Z,4.60
2017-11-26T10:50:43.993Z,4.80
2017-11-26T10:51:47.371Z,4.90
2017-11-26T10:52:49.890Z,4.90
2017-11-26T10:53:53.122Z,5.00
2017-11-26T10:54:56.367Z,5.00
2017-11-26T10:55:58.876Z,5.00
2017-11-26T10:57:02.119Z,5.10
2017-11-26T10:58:05.347Z,5.20
2017-11-26T10:59:07.985Z,5.20
2017-11-26T11:00:10.471Z,5.20
2017-11-26T11:01:13.134Z,5.20
2017-11-26T11:02:15.609Z,5.20
2017-11-26T11:03:18.892Z,5.30
2017-11-26T11:04:21.386Z,5.30
2017-11-26T11:05:23.855Z,5.40
2017-11-26T11:06:27.654Z,5.30
2017-11-26T11:07:30.121Z,5.30
2017-11-26T11:08:32.602Z,5.30
2017-11-26T11:09:35.220Z,5.30
2017-11-26T11:10:37.740Z,5.20
2017-11-26T11:11:40.215Z,5.20
2017-11-26T11:12:42.695Z,5.20
2017-11-26T11:13:45.173Z,5.20
2017-11-26T11:14:47.675Z,5.30
2017-11-26T11:15:50.152Z,5.30
2017-11-26T11:16:53.374Z,5.30
2017-11-26T11:17:55.858Z,5.30
2017-11-26T11:18:58.349Z,5.30
2017-11-26T11:20:01.601Z,5.30
2017-11-26T11:21:04.170Z,5.30
2017-11-26T11:22:06.672Z,5.30
2017-11-26T11:23:09.184Z,5.40
2017-11-26T11:24:11.758Z,5.40
2017-11-26T11:25:14.219Z,5.40
2017-11-26T11:26:17.482Z,5.50
2017-11-26T11:27:19.987Z,5.40
2017-11-26T11:28:23.231Z,5.50
2017-11-26T11:30:35.327Z,5.40
2017-11-26T11:31:38.569Z,5.50
2017-11-26T11:32:41.040Z,5.40
2017-11-26T11:33:43.554Z,5.50
2017-11-26T11:34:46.059Z,5.50
2017-11-26T11:35:49.324Z,5.50
2017-11-26T11:36:51.817Z,5.50
2017-11-26T11:37:54.379Z,5.50
2017-11-26T11:38:56.851Z,5.50
2017-11-26T11:39:59.327Z,5.50
2017-11-26T11:41:01.804Z,5.50
2017-11-26T11:42:04.276Z,5.50
2017-11-26T11:43:06.760Z,5.50
2017-11-26T11:44:09.229Z,5.50
2017-11-26T11:45:12.823Z,5.50
2017-11-26T11:46:15.300Z,5.50
2017-11-26T11:47:17.751Z,5.50
2017-11-26T11:48:20.262Z,5.50
2017-11-26T11:49:22.726Z,5.40
2017-11-26T11:50:25.976Z,5.50
2017-11-26T11:51:28.488Z,5.40
2017-11-26T11:52:30.939Z,5.40
2017-11-26T11:53:34.172Z,5.50
2017-11-26T11:54:36.741Z,5.50
2017-11-26T11:55:39.247Z,5.50
2017-11-26T11:56:42.498Z,5.50
2017-11-26T11:57:44.972Z,5.50
2017-11-26T11:58:47.431Z,5.50
2017-11-26T11:59:50.697Z,5.50
2017-11-26T12:00:53.177Z,5.50
2017-11-26T12:01:55.640Z,5.50
2017-11-26T12:02:58.090Z,5.50
2017-11-26T12:04:00.568Z,5.50
2017-11-26T12:05:03.854Z,5.50
2017-11-26T12:06:06.312Z,5.50
2017-11-26T12:07:08.798Z,5.60
2017-11-26T12:08:11.280Z,5.60
2017-11-26T12:09:14.522Z,5.60
2017-11-26T12:10:17.768Z,5.60
2017-11-26T12:11:20.988Z,5.60
2017-11-26T12:12:23.472Z,5.50
2017-11-26T12:13:25.938Z,5.60
2017-11-26T12:14:28.393Z,5.50
2017-11-26T12:15:31.679Z,5.40
2017-11-26T12:16:34.221Z,5.40
2017-11-26T12:17:36.691Z,5.40
2017-11-26T12:18:39.923Z,5.40
2017-11-26T12:19:43.155Z,5.40
2017-11-26T12:20:45.632Z,5.40
2017-11-26T12:21:48.097Z,5.40
2017-11-26T12:22:50.606Z,5.40
2017-11-26T12:23:53.122Z,5.50
2017-11-26T12:24:55.602Z,5.50
2017-11-26T12:25:58.152Z,5.50
2017-11-26T12:27:00.622Z,5.60
2017-11-26T12:28:03.892Z,5.70
2017-11-26T12:29:07.420Z,5.80
2017-11-26T12:30:11.428Z,5.80
2017-11-26T12:31:13.960Z,5.80
2017-11-26T12:32:16.433Z,5.80
2017-11-26T12:33:18.934Z,5.70
2017-11-26T12:34:21.369Z,5.70
2017-11-26T12:35:23.861Z,5.70
2017-11-26T12:36:26.370Z,5.60
2017-11-26T12:37:28.857Z,5.60
2017-11-26T12:38:31.424Z,5.60
2017-11-26T12:39:33.919Z,5.50
2017-11-26T12:40:37.225Z,5.50
2017-11-26T12:41:39.688Z,5.50
2017-11-26T12:42:42.982Z,5.50
2017-11-26T12:43:45.524Z,5.50
2017-11-26T12:44:48.039Z,5.50
2017-11-26T12:45:50.591Z,5.50
2017-11-26T12:46:53.861Z,5.40
2017-11-26T12:47:57.316Z,5.40
2017-11-26T12:48:59.961Z,5.40
2017-11-26T12:50:02.538Z,5.40
2017-11-26T12:51:05.038Z,5.40
2017-11-26T12:52:07.614Z,5.40
2017-11-26T12:53:10.843Z,5.40
2017-11-26T12:54:14.085Z,5.40
2017-11-26T12:55:17.382Z,5.40
2017-11-26T12:56:19.908Z,5.30
2017-11-26T12:57:22.546Z,5.40
2017-11-26T12:58:25.178Z,5.30
2017-11-26T12:59:27.699Z,5.30
2017-11-26T13:00:30.210Z,5.30
2017-11-26T13:01:32.681Z,5.30
2017-11-26T13:02:35.207Z,5.30
2017-11-26T13:03:37.980Z,5.30
2017-11-26T13:04:40.514Z,5.30
2017-11-26T13:05:43.061Z,5.40
2017-11-26T13:06:45.574Z,5.30
2017-11-26T13:07:48.095Z,5.40
2017-11-26T13:08:50.654Z,5.40
2017-11-26T13:09:53.149Z,5.40
2017-11-26T13:10:55.656Z,5.50
2017-11-26T13:11:58.180Z,5.50
2017-11-26T13:13:00.790Z,5.50
2017-11-26T13:14:04.120Z,5.50
2017-11-26T13:15:06.613Z,5.40
2017-11-26T13:16:09.073Z,5.50
2017-11-26T13:17:12.357Z,5.50
2017-11-26T13:18:14.940Z,5.40
2017-11-26T13:19:17.476Z,5.50
2017-11-26T13:20:20.730Z,5.50
2017-11-26T13:21:23.978Z,5.40
2017-11-26T13:22:26.503Z,5.40
2017-11-26T13:23:28.969Z,5.40
2017-11-26T13:24:31.455Z,5.40
2017-11-26T13:25:33.950Z,5.40
2017-11-26T13:26:37.190Z,5.40
2017-11-26T13:27:39.644Z,5.40
2017-11-26T13:28:42.116Z,5.40
2017-11-26T13:29:44.659Z,5.40
2017-11-26T13:30:48.620Z,5.30
2017-11-26T13:31:52.160Z,5.30
2017-11-26T13:32:55.884Z,5.40
2017-11-26T13:33:58.360Z,5.40
2017-11-26T13:35:01.630Z,5.30
2017-11-26T13:36:04.109Z,5.30
2017-11-26T13:37:06.592Z,5.30
2017-11-26T13:38:09.099Z,5.30
2017-11-26T13:39:11.576Z,5.30
2017-11-26T13:40:15.654Z,5.30
2017-11-26T13:41:19.054Z,5.30
2017-11-26T13:42:21.573Z,5.30
2017-11-26T13:43:24.162Z,5.30
2017-11-26T13:44:27.648Z,5.30
2017-11-26T13:45:30.150Z,5.30
2017-11-26T13:46:33.427Z,5.30
2017-11-26T13:47:35.942Z,5.30
2017-11-26T13:48:38.564Z,5.30
2017-11-26T13:49:41.870Z,5.30
2017-11-26T13:50:44.513Z,5.20
2017-11-26T13:51:47.259Z,5.30
2017-11-26T13:52:49.924Z,5.30
2017-11-26T13:53:52.473Z,5.30
2017-11-26T13:54:54.978Z,5.30
2017-11-26T13:55:57.459Z,5.30
2017-11-26T13:57:00.736Z,5.30
2017-11-26T13:58:03.201Z,5.30